createdAt,value
2019-03-23T00:00:40.389Z,82.69
2019-03-23T00:01:40.373Z,81.86
2019-03-23T00:02:40.392Z,82.38
2019-03-23T00:03:40.353Z,82.89
2019-03-23T00:04:40.365Z,82.89
2019-03-23T00:05:40.330Z,82.48
2019-03-23T00:06:40.321Z,81.96
2019-03-23T00:07:40.316Z,82.89
2019-03-23T00:08:40.308Z,82.38
2019-03-23T00:09:40.311Z,82.38
2019-03-23T00:10:40.294Z,83.20
2019-03-23T00:11:40.487Z,82.59
2019-03-23T00:12:40.273Z,82.89
2019-03-23T00:13:40.245Z,82.69
2019-03-23T00:14:40.241Z,83.65
2019-03-23T00:15:40.262Z,83.25
2019-03-23T00:16:40.235Z,83.55
2019-03-23T00:17:40.206Z,83.65
2019-03-23T00:18:40.190Z,83.76
2019-03-23T00:19:40.191Z,83.45
2019-03-23T00:20:40.176Z,83.90
2019-03-23T00:21:40.199Z,83.86
2019-03-23T00:22:40.170Z,83.59
2019-03-23T00:23:40.181Z,83.59
2019-03-23T00:24:40.128Z,84.21
2019-03-23T00:25:40.121Z,85.10
2019-03-23T00:26:40.113Z,85.10
2019-03-23T00:27:40.125Z,84.83
2019-03-23T00:28:40.110Z,84.00
2019-03-23T00:29:40.077Z,84.63
2019-03-23T00:30:40.064Z,83.59
2019-03-23T00:31:40.055Z,84.73
2019-03-23T00:32:40.039Z,85.45
2019-03-23T00:33:40.085Z,83.32
2019-03-23T00:34:40.023Z,83.28
2019-03-23T00:35:40.011Z,84.31
2019-03-23T00:36:41.796Z,85.14
2019-03-23T00:37:39.984Z,85.55
2019-03-23T00:38:39.990Z,85.14
2019-03-23T00:39:40.019Z,84.94
2019-03-23T00:40:39.955Z,85.18
2019-03-23T00:41:39.945Z,84.97
2019-03-23T00:42:39.931Z,85.80
2019-03-23T00:43:39.936Z,85.60
2019-03-23T00:44:39.909Z,85.28
2019-03-23T00:45:39.948Z,84.36
2019-03-23T00:46:39.886Z,85.18
2019-03-23T00:47:39.879Z,85.49
2019-03-23T00:48:39.895Z,85.53
2019-03-23T00:49:39.854Z,85.08
2019-03-23T00:50:39.849Z,84.97
2019-03-23T00:51:39.875Z,85.39
2019-03-23T00:52:39.822Z,85.91
2019-03-23T00:53:39.833Z,86.01
2019-03-23T00:54:39.808Z,85.70
2019-03-23T00:55:39.792Z,86.25
2019-03-23T00:56:39.790Z,86.42
2019-03-23T00:57:39.795Z,86.63
2019-03-23T00:58:39.782Z,86.01
2019-03-23T00:59:39.769Z,85.35
2019-03-23T01:00:39.740Z,84.94
2019-03-23T01:01:39.730Z,85.18
2019-03-23T01:02:41.690Z,85.66
2019-03-23T01:03:39.705Z,85.18
2019-03-23T01:04:39.714Z,85.39
2019-03-23T01:05:39.733Z,85.28
2019-03-23T01:06:39.727Z,85.28
2019-03-23T01:07:39.668Z,85.91
2019-03-23T01:08:39.658Z,86.36
2019-03-23T01:09:39.639Z,86.21
2019-03-23T01:10:39.628Z,85.80
2019-03-23T01:11:39.654Z,85.22
2019-03-23T01:12:39.647Z,85.84
2019-03-23T01:13:39.628Z,85.63
2019-03-23T01:14:39.589Z,86.09
2019-03-23T01:15:39.580Z,86.57
2019-03-23T01:16:39.577Z,86.60
2019-03-23T01:17:39.574Z,87.08
2019-03-23T01:18:39.609Z,87.43
2019-03-23T01:19:39.541Z,87.43
2019-03-23T01:20:49.373Z,87.43
2019-03-23T01:21:40.513Z,87.23
2019-03-23T01:22:39.518Z,87.64
2019-03-23T01:23:39.512Z,87.54
2019-03-23T01:24:39.501Z,87.74
2019-03-23T01:25:39.468Z,87.95
2019-03-23T01:26:39.466Z,88.20
2019-03-23T01:27:39.458Z,88.78
2019-03-23T01:28:39.438Z,88.30
2019-03-23T01:29:39.454Z,89.03
2019-03-23T01:30:39.454Z,88.16
2019-03-23T01:31:39.413Z,88.09
2019-03-23T01:32:39.395Z,87.47
2019-03-23T01:33:39.387Z,88.09
2019-03-23T01:34:39.376Z,88.09
2019-03-23T01:35:39.382Z,88.51
2019-03-23T01:36:39.381Z,89.03
2019-03-23T01:37:39.342Z,88.51
2019-03-23T01:38:39.334Z,89.03
2019-03-23T01:39:39.347Z,89.38
2019-03-23T01:40:39.328Z,89.28
2019-03-23T01:41:39.306Z,89.23
2019-03-23T01:42:39.317Z,88.96
2019-03-23T01:43:39.319Z,89.17
2019-03-23T01:44:39.292Z,89.69
2019-03-23T01:45:39.266Z,89.58
2019-03-23T01:46:39.258Z,89.38
2019-03-23T01:47:39.238Z,89.58
2019-03-23T01:48:39.239Z,89.69
2019-03-23T01:49:39.249Z,89.48
2019-03-23T01:50:39.226Z,89.79
2019-03-23T01:51:39.205Z,89.38
2019-03-23T01:52:39.190Z,89.48
2019-03-23T01:53:39.185Z,89.58
2019-03-23T01:54:39.170Z,89.31
2019-03-23T01:55:39.352Z,89.83
2019-03-23T01:56:39.149Z,89.89
2019-03-23T01:57:39.134Z,89.69
2019-03-23T01:58:39.129Z,89.28
2019-03-23T01:59:39.120Z,89.07
2019-03-23T02:00:39.120Z,89.17
2019-03-23T02:01:39.124Z,89.31
2019-03-23T02:02:39.112Z,89.69
2019-03-23T02:03:39.071Z,89.83
2019-03-23T02:04:39.069Z,89.42
2019-03-23T02:05:39.049Z,89.94
2019-03-23T02:06:39.060Z,89.62
2019-03-23T02:07:39.037Z,89.94
2019-03-23T02:08:39.049Z,89.73
2019-03-23T02:09:39.046Z,89.83
2019-03-23T02:10:38.996Z,89.42
2019-03-23T02:11:38.989Z,89.94
2019-03-23T02:12:38.994Z,90.04
2019-03-23T02:13:38.963Z,90.77
2019-03-23T02:14:38.953Z,90.35
2019-03-23T02:15:39.005Z,90.56
2019-03-23T02:16:38.984Z,91.08
2019-03-23T02:17:38.936Z,91.49
2019-03-23T02:18:38.915Z,91.28
2019-03-23T02:19:38.899Z,91.60
2019-03-23T02:20:38.907Z,91.91
2019-03-23T02:21:38.932Z,92.11
2019-03-23T02:22:38.869Z,92.57
2019-03-23T02:23:38.860Z,92.11
2019-03-23T02:24:38.847Z,91.95
2019-03-23T02:25:38.856Z,91.91
2019-03-23T02:26:38.826Z,92.16
2019-03-23T02:27:38.844Z,92.36
2019-03-23T02:28:38.845Z,92.05
2019-03-23T02:29:38.802Z,91.60
2019-03-23T02:30:38.818Z,91.74
2019-03-23T02:31:38.774Z,91.60
2019-03-23T02:32:38.778Z,91.28
2019-03-23T02:33:38.767Z,91.43
2019-03-23T02:34:38.759Z,91.43
2019-03-23T02:35:38.740Z,91.43
2019-03-23T02:36:38.737Z,91.43
2019-03-23T02:37:38.945Z,91.53
2019-03-23T02:38:38.700Z,91.43
2019-03-23T02:39:38.705Z,92.22
2019-03-23T02:40:38.735Z,92.98
2019-03-23T02:41:38.690Z,93.15
2019-03-23T02:42:38.685Z,93.56
2019-03-23T02:43:38.651Z,93.56
2019-03-23T02:44:38.647Z,93.87
2019-03-23T02:45:38.656Z,93.87
2019-03-23T02:46:38.634Z,93.77
2019-03-23T02:47:38.693Z,94.39
2019-03-23T02:48:38.607Z,94.49
2019-03-23T02:49:38.591Z,93.56
2019-03-23T02:50:38.580Z,93.66
2019-03-23T02:51:39.878Z,93.46
2019-03-23T02:52:38.555Z,93.56
2019-03-23T02:53:38.563Z,92.32
2019-03-23T02:54:38.574Z,92.32
2019-03-23T02:55:38.525Z,92.16
2019-03-23T02:56:38.520Z,91.60
2019-03-23T02:57:38.533Z,91.28
2019-03-23T02:58:38.489Z,91.18
2019-03-23T02:59:38.503Z,91.33
2019-03-23T03:00:38.545Z,91.33
2019-03-23T03:01:38.477Z,92.26
2019-03-23T03:02:38.447Z,91.74
2019-03-23T03:03:38.435Z,92.26
2019-03-23T03:04:38.433Z,91.95
2019-03-23T03:05:38.430Z,92.41
2019-03-23T03:06:38.468Z,92.51
2019-03-23T03:07:42.688Z,93.13
2019-03-23T03:08:38.380Z,93.44
2019-03-23T03:09:38.375Z,93.44
2019-03-23T03:10:38.357Z,93.85
2019-03-23T03:11:38.374Z,94.68
2019-03-23T03:12:38.400Z,94.58
2019-03-23T03:13:38.324Z,94.68
2019-03-23T03:14:38.315Z,94.68
2019-03-23T03:15:38.306Z,95.51
2019-03-23T03:16:38.300Z,95.47
2019-03-23T03:17:38.304Z,95.26
2019-03-23T03:18:38.292Z,94.64
2019-03-23T03:19:38.336Z,94.58
2019-03-23T03:20:38.260Z,95.00
2019-03-23T03:21:38.253Z,94.79
2019-03-23T03:22:38.235Z,94.68
2019-03-23T03:23:38.245Z,94.58
2019-03-23T03:24:38.307Z,94.68
2019-03-23T03:25:38.200Z,94.89
2019-03-23T03:26:38.190Z,95.10
2019-03-23T03:27:38.194Z,94.89
2019-03-23T03:28:38.170Z,95.62
2019-03-23T03:29:38.179Z,95.31
2019-03-23T03:30:38.235Z,95.41
2019-03-23T03:31:38.171Z,95.41
2019-03-23T03:32:38.230Z,95.62
2019-03-23T03:33:38.112Z,95.72
2019-03-23T03:34:38.125Z,96.45
2019-03-23T03:35:38.091Z,96.55
2019-03-23T03:36:38.091Z,96.55
2019-03-23T03:37:38.076Z,96.76
2019-03-23T03:38:38.079Z,96.97
2019-03-23T03:39:38.086Z,97.07
2019-03-23T03:40:38.062Z,96.66
2019-03-23T03:41:38.077Z,96.55
2019-03-23T03:42:38.038Z,96.66
2019-03-23T03:43:38.025Z,96.14
2019-03-23T03:44:38.034Z,96.34
2019-03-23T03:45:37.997Z,96.66
2019-03-23T03:46:37.983Z,96.45
2019-03-23T03:47:41.073Z,96.66
2019-03-23T03:48:37.958Z,96.45
2019-03-23T03:49:37.975Z,96.14
2019-03-23T03:50:37.991Z,96.55
2019-03-23T03:51:37.922Z,96.76
2019-03-23T03:52:37.944Z,96.45
2019-03-23T03:53:37.900Z,96.92
2019-03-23T03:54:37.898Z,97.34
2019-03-23T03:55:37.885Z,97.50
2019-03-23T03:56:37.912Z,98.17
2019-03-23T03:57:37.910Z,99.16
2019-03-23T03:58:37.868Z,98.91
2019-03-23T03:59:37.841Z,99.22
2019-03-23T04:00:37.823Z,98.96
2019-03-23T04:01:37.815Z,98.75
2019-03-23T04:02:37.843Z,98.65
2019-03-23T04:03:37.804Z,98.96
2019-03-23T04:04:37.803Z,98.19
2019-03-23T04:05:37.795Z,98.61
2019-03-23T04:06:37.786Z,98.40
2019-03-23T04:07:37.780Z,97.99
2019-03-23T04:08:37.745Z,98.50
2019-03-23T04:09:40.313Z,98.40
2019-03-23T04:10:37.801Z,98.71
2019-03-23T04:11:37.719Z,98.50
2019-03-23T04:12:37.712Z,98.50
2019-03-23T04:13:37.689Z,98.71
2019-03-23T04:14:37.698Z,98.50
2019-03-23T04:15:37.664Z,98.61
2019-03-23T04:16:37.698Z,98.71
2019-03-23T04:17:37.652Z,98.50
2019-03-23T04:18:37.671Z,98.40
2019-03-23T04:19:37.626Z,98.50
2019-03-23T04:20:37.621Z,98.50
2019-03-23T04:21:37.609Z,98.40
2019-03-23T04:22:37.629Z,98.40
2019-03-23T04:23:37.947Z,98.40
2019-03-23T04:24:37.593Z,98.19
2019-03-23T04:25:37.572Z,98.50
2019-03-23T04:26:39.368Z,98.50
2019-03-23T04:27:37.571Z,98.50
2019-03-23T04:28:37.553Z,98.61
2019-03-23T04:29:37.552Z,98.61
2019-03-23T04:30:37.514Z,98.50
2019-03-23T04:31:37.508Z,98.61
2019-03-23T04:32:37.508Z,98.56
2019-03-23T04:33:37.482Z,98.50
2019-03-23T04:34:37.462Z,98.25
2019-03-23T04:35:37.472Z,98.40
2019-03-23T04:36:37.478Z,98.82
2019-03-23T04:37:37.469Z,99.23
2019-03-23T04:38:37.426Z,98.61
2019-03-23T04:39:37.409Z,98.15
2019-03-23T04:40:37.410Z,98.92
2019-03-23T04:41:37.405Z,98.66
2019-03-23T04:42:37.384Z,99.13
2019-03-23T04:43:37.398Z,98.92
2019-03-23T04:44:37.422Z,98.92
2019-03-23T04:45:37.361Z,99.02
2019-03-23T04:46:37.340Z,99.02
2019-03-23T04:47:37.346Z,98.66
2019-03-23T04:48:37.340Z,98.71
2019-03-23T04:49:37.306Z,98.71
2019-03-23T04:50:37.368Z,98.61
2019-03-23T04:51:37.289Z,99.13
2019-03-23T04:52:37.273Z,98.61
2019-03-23T04:53:37.281Z,98.50
2019-03-23T04:54:38.944Z,98.50
2019-03-23T04:55:37.244Z,98.97
2019-03-23T04:56:37.251Z,98.66
2019-03-23T04:57:37.271Z,98.77
2019-03-23T04:58:37.213Z,98.97
2019-03-23T04:59:37.259Z,98.71
2019-03-23T05:00:37.208Z,99.02
2019-03-23T05:01:37.230Z,99.02
2019-03-23T05:02:37.239Z,99.02
2019-03-23T05:03:37.195Z,98.92
2019-03-23T05:04:37.196Z,98.61
2019-03-23T05:05:37.187Z,98.61
2019-03-23T05:06:37.163Z,98.61
2019-03-23T05:07:37.159Z,98.82
2019-03-23T05:08:37.247Z,98.61
2019-03-23T05:09:37.172Z,98.77
2019-03-23T05:10:37.156Z,98.71
2019-03-23T05:11:37.165Z,98.71
2019-03-23T05:12:37.158Z,98.87
2019-03-23T05:13:37.130Z,98.97
2019-03-23T05:14:37.073Z,98.56
2019-03-23T05:15:37.079Z,98.61
2019-03-23T05:16:37.076Z,98.71
2019-03-23T05:17:37.077Z,99.43
2019-03-23T05:18:37.108Z,99.49
2019-03-23T05:19:37.777Z,99.43
2019-03-23T05:20:37.024Z,99.33
2019-03-23T05:21:37.022Z,99.23
2019-03-23T05:22:37.006Z,99.43
2019-03-23T05:23:37.023Z,99.18
2019-03-23T05:24:36.989Z,99.43
2019-03-23T05:25:37.028Z,99.60
2019-03-23T05:26:36.917Z,98.92
2019-03-23T05:27:36.906Z,99.43
2019-03-23T05:28:36.912Z,98.71
2019-03-23T05:29:36.885Z,99.64
2019-03-23T05:30:36.868Z,99.02
2019-03-23T05:31:36.878Z,98.61
2019-03-23T05:32:36.851Z,98.87
2019-03-23T05:33:36.851Z,98.61
2019-03-23T05:34:36.877Z,98.56
2019-03-23T05:35:36.821Z,98.82
2019-03-23T05:36:36.808Z,98.61
2019-03-23T05:37:36.800Z,98.71
2019-03-23T05:38:44.314Z,98.92
2019-03-23T05:39:37.773Z,98.61
2019-03-23T05:40:36.772Z,98.92
2019-03-23T05:41:36.762Z,98.46
2019-03-23T05:42:36.747Z,98.56
2019-03-23T05:43:36.746Z,98.87
2019-03-23T05:44:36.776Z,98.87
2019-03-23T05:45:36.717Z,99.43
2019-03-23T05:46:36.709Z,99.60
2019-03-23T05:47:36.693Z,99.08
2019-03-23T05:48:36.886Z,98.77
2019-03-23T05:49:36.688Z,98.77
2019-03-23T05:50:36.678Z,98.77
2019-03-23T05:51:36.648Z,98.66
2019-03-23T05:52:36.636Z,98.87
2019-03-23T05:53:36.624Z,98.97
2019-03-23T05:54:36.616Z,99.08
2019-03-23T05:55:36.626Z,98.87
2019-03-23T05:56:36.614Z,98.77
2019-03-23T05:57:36.647Z,98.56
2019-03-23T05:58:36.576Z,98.77
2019-03-23T05:59:36.575Z,98.77
2019-03-23T06:00:36.568Z,98.77
2019-03-23T06:01:36.562Z,98.56
2019-03-23T06:02:36.528Z,98.46
2019-03-23T06:03:36.569Z,98.87
2019-03-23T06:04:36.519Z,98.66
2019-03-23T06:05:36.500Z,98.87
2019-03-23T06:06:36.489Z,99.39
2019-03-23T06:07:36.506Z,99.39
2019-03-23T06:08:36.517Z,99.39
2019-03-23T06:09:36.707Z,99.39
2019-03-23T06:10:36.456Z,99.49
2019-03-23T06:11:36.449Z,99.29
2019-03-23T06:12:36.429Z,99.29
2019-03-23T06:13:36.432Z,99.18
2019-03-23T06:14:36.404Z,98.62
2019-03-23T06:15:36.427Z,98.66
2019-03-23T06:16:36.386Z,98.77
2019-03-23T06:17:36.371Z,98.77
2019-03-23T06:18:36.362Z,98.97
2019-03-23T06:19:36.373Z,98.97
2019-03-23T06:20:36.346Z,99.18
2019-03-23T06:21:36.423Z,98.83
2019-03-23T06:22:36.325Z,98.52
2019-03-23T06:23:36.310Z,98.41
2019-03-23T06:24:36.303Z,98.41
2019-03-23T06:25:36.307Z,97.94
2019-03-23T06:26:36.283Z,97.89
2019-03-23T06:27:36.287Z,98.00
2019-03-23T06:28:36.264Z,98.15
2019-03-23T06:29:36.253Z,97.74
2019-03-23T06:30:36.235Z,97.69
2019-03-23T06:31:36.245Z,97.28
2019-03-23T06:32:36.216Z,97.07
2019-03-23T06:33:36.239Z,97.07
2019-03-23T06:34:36.198Z,97.17
2019-03-23T06:35:36.184Z,97.28
2019-03-23T06:36:36.173Z,97.28
2019-03-23T06:37:36.186Z,97.17
2019-03-23T06:38:36.160Z,96.86
2019-03-23T06:39:36.210Z,96.86
2019-03-23T06:40:36.159Z,97.38
2019-03-23T06:41:36.154Z,96.97
2019-03-23T06:42:36.117Z,96.76
2019-03-23T06:43:36.111Z,96.86
2019-03-23T06:44:36.116Z,96.34
2019-03-23T06:45:36.087Z,96.61
2019-03-23T06:46:36.071Z,96.55
2019-03-23T06:47:36.078Z,96.41
2019-03-23T06:48:36.065Z,96.30
2019-03-23T06:49:36.071Z,96.20
2019-03-23T06:50:36.173Z,96.24
2019-03-23T06:51:36.236Z,95.57
2019-03-23T06:52:36.026Z,95.48
2019-03-23T06:53:36.016Z,95.78
2019-03-23T06:54:35.996Z,95.17
2019-03-23T06:55:36.007Z,95.17
2019-03-23T06:56:35.982Z,95.48
2019-03-23T06:57:35.966Z,95.21
2019-03-23T06:58:36.083Z,95.37
2019-03-23T06:59:35.966Z,95.21
2019-03-23T07:00:35.963Z,94.96
2019-03-23T07:01:35.936Z,94.85
2019-03-23T07:02:35.924Z,94.96
2019-03-23T07:03:35.902Z,94.90
2019-03-23T07:04:36.024Z,94.85
2019-03-23T07:05:35.879Z,95.12
2019-03-23T07:06:35.871Z,95.27
2019-03-23T07:07:35.866Z,94.60
2019-03-23T07:08:35.858Z,94.44
2019-03-23T07:09:35.831Z,94.34
2019-03-23T07:10:35.851Z,94.13
2019-03-23T07:11:35.867Z,94.13
2019-03-23T07:12:36.012Z,94.44
2019-03-23T07:13:35.839Z,94.44
2019-03-23T07:14:35.809Z,94.23
2019-03-23T07:15:35.773Z,94.29
2019-03-23T07:16:35.829Z,94.60
2019-03-23T07:17:35.746Z,94.50
2019-03-23T07:18:35.736Z,94.09
2019-03-23T07:19:35.813Z,93.98
2019-03-23T07:20:35.715Z,93.88
2019-03-23T07:21:35.721Z,93.98
2019-03-23T07:22:35.745Z,94.09
2019-03-23T07:23:35.675Z,94.09
2019-03-23T07:24:35.695Z,93.47
2019-03-23T07:25:35.859Z,93.57
2019-03-23T07:26:35.737Z,93.57
2019-03-23T07:27:35.642Z,93.37
2019-03-23T07:28:35.692Z,93.16
2019-03-23T07:29:35.661Z,93.05
2019-03-23T07:30:35.696Z,93.05
2019-03-23T07:31:35.684Z,93.26
2019-03-23T07:32:35.645Z,93.26
2019-03-23T07:33:35.610Z,93.43
2019-03-23T07:34:35.652Z,93.26
2019-03-23T07:35:35.564Z,93.37
2019-03-23T07:36:35.538Z,93.37
2019-03-23T07:37:35.535Z,93.16
2019-03-23T07:38:35.541Z,93.32
2019-03-23T07:39:35.503Z,93.01
2019-03-23T07:40:35.494Z,93.22
2019-03-23T07:41:35.505Z,93.01
2019-03-23T07:42:35.488Z,92.91
2019-03-23T07:43:35.459Z,92.85
2019-03-23T07:44:35.457Z,92.40
2019-03-23T07:45:35.451Z,92.08
2019-03-23T07:46:35.430Z,92.19
2019-03-23T07:47:35.454Z,92.19
2019-03-23T07:48:35.407Z,91.88
2019-03-23T07:49:35.408Z,91.46
2019-03-23T07:50:35.416Z,91.77
2019-03-23T07:51:35.371Z,91.67
2019-03-23T07:52:35.368Z,91.77
2019-03-23T07:53:35.378Z,91.94
2019-03-23T07:54:35.346Z,91.83
2019-03-23T07:55:35.351Z,91.16
2019-03-23T07:56:35.328Z,91.22
2019-03-23T07:57:35.325Z,90.74
2019-03-23T07:58:35.318Z,90.95
2019-03-23T07:59:35.317Z,91.22
2019-03-23T08:00:35.316Z,91.42
2019-03-23T08:01:35.312Z,91.01
2019-03-23T08:02:35.275Z,90.53
2019-03-23T08:03:35.253Z,91.01
2019-03-23T08:04:35.254Z,91.01
2019-03-23T08:05:35.261Z,90.59
2019-03-23T08:06:35.214Z,91.01
2019-03-23T08:07:35.217Z,90.70
2019-03-23T08:08:35.229Z,90.59
2019-03-23T08:09:37.840Z,90.70
2019-03-23T08:10:35.196Z,90.66
2019-03-23T08:11:35.170Z,90.35
2019-03-23T08:12:35.148Z,90.25
2019-03-23T08:13:35.162Z,89.83
2019-03-23T08:14:36.212Z,90.04
2019-03-23T08:15:35.119Z,89.77
2019-03-23T08:16:35.177Z,90.08
2019-03-23T08:17:35.122Z,89.32
2019-03-23T08:18:35.081Z,89.62
2019-03-23T08:19:35.078Z,89.67
2019-03-23T08:20:35.066Z,89.32
2019-03-23T08:21:35.066Z,88.90
2019-03-23T08:22:35.037Z,88.90
2019-03-23T08:23:35.063Z,89.11
2019-03-23T08:24:35.032Z,89.22
2019-03-23T08:25:35.003Z,89.22
2019-03-23T08:26:35.008Z,89.01
2019-03-23T08:27:35.025Z,89.11
2019-03-23T08:28:34.979Z,89.22
2019-03-23T08:29:34.986Z,88.59
2019-03-23T08:30:34.974Z,88.90
2019-03-23T08:31:35.054Z,89.01
2019-03-23T08:32:34.941Z,88.80
2019-03-23T08:33:34.935Z,88.80
2019-03-23T08:34:34.928Z,88.70
2019-03-23T08:35:34.901Z,89.32
2019-03-23T08:36:35.268Z,89.07
2019-03-23T08:37:34.893Z,88.80
2019-03-23T08:38:34.883Z,88.59
2019-03-23T08:39:35.006Z,88.70
2019-03-23T08:40:35.893Z,88.86
2019-03-23T08:41:34.863Z,88.76
2019-03-23T08:42:35.068Z,88.56
2019-03-23T08:43:34.830Z,88.56
2019-03-23T08:44:34.819Z,88.14
2019-03-23T08:45:34.817Z,88.35
2019-03-23T08:46:34.802Z,88.45
2019-03-23T08:47:34.785Z,89.07
2019-03-23T08:48:34.777Z,88.62
2019-03-23T08:49:34.768Z,87.99
2019-03-23T08:50:34.767Z,87.38
2019-03-23T08:51:34.728Z,87.21
2019-03-23T08:52:34.720Z,87.07
2019-03-23T08:53:34.732Z,86.76
2019-03-23T08:54:34.715Z,87.48
2019-03-23T08:55:34.718Z,87.17
2019-03-23T08:56:34.703Z,87.07
2019-03-23T08:57:34.668Z,87.07
2019-03-23T08:58:34.657Z,87.38
2019-03-23T08:59:35.057Z,87.48
2019-03-23T09:00:34.633Z,86.76
2019-03-23T09:01:34.641Z,85.42
2019-03-23T09:02:34.626Z,86.45
2019-03-23T09:03:34.646Z,85.94
2019-03-23T09:04:34.587Z,86.24
2019-03-23T09:05:34.592Z,86.97
2019-03-23T09:06:34.570Z,86.04
2019-03-23T09:07:34.559Z,86.24
2019-03-23T09:08:34.547Z,86.04
2019-03-23T09:09:34.538Z,85.94
2019-03-23T09:10:34.602Z,86.35
2019-03-23T09:11:34.542Z,87.07
2019-03-23T09:12:34.554Z,86.45
2019-03-23T09:13:40.618Z,86.55
2019-03-23T09:14:35.505Z,86.66
2019-03-23T09:15:34.472Z,86.82
2019-03-23T09:16:34.475Z,86.52
2019-03-23T09:17:34.507Z,86.00
2019-03-23T09:18:34.437Z,85.24
2019-03-23T09:19:34.428Z,85.55
2019-03-23T09:20:34.448Z,84.89
2019-03-23T09:21:34.412Z,83.76
2019-03-23T09:22:34.523Z,84.79
2019-03-23T09:23:34.388Z,82.53
2019-03-23T09:24:34.384Z,82.59
2019-03-23T09:25:34.382Z,81.91
2019-03-23T09:26:34.367Z,82.59
2019-03-23T09:27:34.456Z,82.59
2019-03-23T09:28:34.385Z,82.07
2019-03-23T09:29:34.332Z,81.87
2019-03-23T09:30:34.328Z,80.43
2019-03-23T09:31:34.299Z,80.84
2019-03-23T09:32:34.340Z,81.05
2019-03-23T09:33:34.283Z,82.07
2019-03-23T09:34:34.285Z,82.48
2019-03-23T09:35:34.307Z,82.07
2019-03-23T09:36:34.294Z,82.48
2019-03-23T09:37:38.303Z,82.48
2019-03-23T09:38:34.285Z,81.56
2019-03-23T09:39:34.243Z,82.18
2019-03-23T09:40:34.222Z,81.76
2019-03-23T09:41:34.208Z,81.93
2019-03-23T09:42:34.201Z,82.14
2019-03-23T09:43:34.186Z,82.55
2019-03-23T09:44:34.159Z,82.34
2019-03-23T09:45:34.169Z,82.45
2019-03-23T09:46:34.239Z,81.83
2019-03-23T09:47:34.220Z,81.62
2019-03-23T09:48:34.120Z,80.80
2019-03-23T09:49:34.151Z,80.60
2019-03-23T09:50:34.096Z,80.70
2019-03-23T09:51:34.094Z,80.29
2019-03-23T09:52:34.118Z,81.83
2019-03-23T09:53:34.093Z,80.08
2019-03-23T09:54:34.080Z,80.29
2019-03-23T09:55:34.155Z,80.70
2019-03-23T09:56:34.085Z,80.49
2019-03-23T09:57:34.062Z,79.88
2019-03-23T09:58:34.043Z,79.77
2019-03-23T09:59:34.024Z,80.08
2019-03-23T10:00:34.005Z,79.63
2019-03-23T10:01:34.022Z,80.87
2019-03-23T10:02:33.988Z,80.05
2019-03-23T10:03:34.042Z,79.63
2019-03-23T10:04:33.963Z,80.46
2019-03-23T10:05:33.949Z,79.12
2019-03-23T10:06:33.960Z,79.94
2019-03-23T10:07:33.932Z,79.84
2019-03-23T10:08:33.968Z,79.22
2019-03-23T10:09:33.904Z,79.33
2019-03-23T10:10:33.965Z,80.25
2019-03-23T10:11:33.888Z,80.77
2019-03-23T10:12:33.879Z,80.15
2019-03-23T10:13:33.861Z,80.21
2019-03-23T10:14:33.913Z,79.94
2019-03-23T10:15:33.843Z,79.74
2019-03-23T10:16:33.841Z,79.33
2019-03-23T10:17:33.817Z,79.22
2019-03-23T10:18:33.932Z,78.81
2019-03-23T10:19:33.793Z,79.12
2019-03-23T10:20:33.817Z,79.22
2019-03-23T10:21:33.812Z,79.33
2019-03-23T10:22:33.987Z,79.33
2019-03-23T10:23:33.774Z,79.43
2019-03-23T10:24:33.760Z,80.25
2019-03-23T10:25:33.732Z,79.63
2019-03-23T10:26:33.742Z,79.63
2019-03-23T10:27:33.781Z,79.22
2019-03-23T10:28:33.705Z,78.92
2019-03-23T10:29:33.718Z,79.84
2019-03-23T10:30:33.684Z,79.33
2019-03-23T10:31:33.662Z,78.81
2019-03-23T10:32:33.677Z,79.74
2019-03-23T10:33:33.666Z,79.02
2019-03-23T10:34:33.631Z,79.33
2019-03-23T10:35:33.649Z,79.12
2019-03-23T10:36:33.617Z,79.53
2019-03-23T10:37:33.686Z,79.33
2019-03-23T10:38:33.644Z,79.53
2019-03-23T10:39:33.596Z,79.94
2019-03-23T10:40:33.571Z,79.74
2019-03-23T10:41:33.569Z,79.74
2019-03-23T10:42:33.629Z,79.94
2019-03-23T10:43:33.891Z,79.63
2019-03-23T10:44:33.552Z,79.63
2019-03-23T10:45:43.507Z,79.33
2019-03-23T10:46:34.521Z,79.33
2019-03-23T10:47:33.655Z,79.74
2019-03-23T10:48:33.522Z,79.63
2019-03-23T10:49:33.480Z,79.77
2019-03-23T10:50:33.581Z,79.57
2019-03-23T10:51:33.465Z,79.77
2019-03-23T10:52:33.458Z,78.85
2019-03-23T10:53:33.437Z,80.15
2019-03-23T10:54:33.467Z,79.74
2019-03-23T10:55:33.420Z,79.36
2019-03-23T10:56:33.403Z,79.94
2019-03-23T10:57:33.503Z,79.43
2019-03-23T10:58:33.400Z,79.22
2019-03-23T10:59:33.380Z,79.60
2019-03-23T11:00:33.399Z,79.53
2019-03-23T11:01:33.368Z,78.88
2019-03-23T11:02:33.388Z,79.63
2019-03-23T11:03:33.339Z,78.30
2019-03-23T11:04:33.343Z,78.92
2019-03-23T11:05:33.321Z,79.02
2019-03-23T11:06:33.338Z,79.84
2019-03-23T11:07:33.285Z,79.60
2019-03-23T11:08:33.290Z,79.49
2019-03-23T11:09:33.341Z,79.19
2019-03-23T11:10:41.545Z,79.29
2019-03-23T11:11:34.296Z,79.33
2019-03-23T11:12:33.232Z,79.74
2019-03-23T11:13:33.226Z,79.63
2019-03-23T11:14:33.348Z,79.33
2019-03-23T11:15:33.236Z,78.98
2019-03-23T11:16:33.190Z,79.33
2019-03-23T11:17:33.206Z,79.02
2019-03-23T11:18:33.277Z,78.92
2019-03-23T11:19:33.162Z,78.71
2019-03-23T11:20:33.170Z,79.22
2019-03-23T11:21:33.147Z,78.92
2019-03-23T11:22:33.130Z,78.92
2019-03-23T11:23:33.216Z,78.92
2019-03-23T11:24:33.153Z,79.12
2019-03-23T11:25:33.112Z,79.53
2019-03-23T11:26:33.143Z,80.05
2019-03-23T11:27:33.103Z,79.02
2019-03-23T11:28:33.073Z,79.22
2019-03-23T11:29:33.090Z,79.43
2019-03-23T11:30:33.058Z,79.94
2019-03-23T11:31:33.048Z,79.33
2019-03-23T11:32:33.041Z,79.53
2019-03-23T11:33:33.011Z,80.15
2019-03-23T11:34:33.013Z,79.43
2019-03-23T11:35:33.022Z,79.70
2019-03-23T11:36:33.008Z,79.70
2019-03-23T11:37:33.034Z,78.57
2019-03-23T11:38:32.958Z,78.88
2019-03-23T11:39:32.952Z,78.53
2019-03-23T11:40:32.983Z,77.58
2019-03-23T11:41:32.983Z,77.74
2019-03-23T11:42:33.748Z,76.68
2019-03-23T11:43:32.920Z,76.44
2019-03-23T11:44:32.953Z,75.31
2019-03-23T11:45:32.888Z,75.28
2019-03-23T11:46:32.878Z,73.85
2019-03-23T11:47:33.218Z,73.44
2019-03-23T11:48:32.856Z,72.72
2019-03-23T11:49:32.856Z,72.99
2019-03-23T11:50:32.845Z,73.27
2019-03-23T11:51:32.849Z,70.91
2019-03-23T11:52:32.837Z,70.16
2019-03-23T11:53:32.817Z,71.49
2019-03-23T11:54:32.809Z,70.26
2019-03-23T11:55:32.806Z,69.34
2019-03-23T11:56:32.778Z,69.68
2019-03-23T11:57:32.757Z,70.20
2019-03-23T11:58:32.757Z,71.25
2019-03-23T11:59:32.755Z,70.94
2019-03-23T12:00:32.796Z,71.36
2019-03-23T12:01:32.715Z,70.94
2019-03-23T12:02:32.735Z,72.41
2019-03-23T12:03:32.797Z,72.72
2019-03-23T12:04:32.699Z,71.56
2019-03-23T12:05:32.693Z,71.69
2019-03-23T12:06:32.677Z,71.49
2019-03-23T12:07:32.683Z,71.80
2019-03-23T12:08:32.863Z,72.11
2019-03-23T12:09:32.627Z,72.72
2019-03-23T12:10:32.634Z,71.90
2019-03-23T12:11:32.640Z,72.52
2019-03-23T12:12:32.636Z,72.41
2019-03-23T12:13:32.584Z,71.25
2019-03-23T12:14:32.597Z,71.66
2019-03-23T12:15:32.567Z,71.69
2019-03-23T12:16:32.557Z,71.86
2019-03-23T12:17:32.577Z,71.25
2019-03-23T12:18:32.538Z,71.56
2019-03-23T12:19:32.531Z,71.45
2019-03-23T12:20:32.516Z,71.97
2019-03-23T12:21:32.506Z,72.14
2019-03-23T12:22:32.496Z,71.90
2019-03-23T12:23:32.525Z,71.32
2019-03-23T12:24:32.496Z,71.19
2019-03-23T12:25:32.467Z,70.84
2019-03-23T12:26:32.441Z,69.48
2019-03-23T12:27:32.454Z,70.00
2019-03-23T12:28:32.518Z,69.56
2019-03-23T12:29:32.775Z,70.17
2019-03-23T12:30:32.408Z,68.94
2019-03-23T12:31:32.407Z,69.56
2019-03-23T12:32:32.389Z,69.35
2019-03-23T12:33:32.444Z,68.53
2019-03-23T12:34:32.379Z,69.59
2019-03-23T12:35:32.366Z,69.48
2019-03-23T12:36:32.335Z,69.89
2019-03-23T12:37:32.405Z,70.10
2019-03-23T12:38:32.321Z,69.11
2019-03-23T12:39:32.314Z,69.31
2019-03-23T12:40:32.302Z,70.95
2019-03-23T12:41:32.699Z,70.84
2019-03-23T12:42:32.310Z,71.25
2019-03-23T12:43:32.271Z,71.29
2019-03-23T12:44:32.258Z,71.29
2019-03-23T12:45:32.245Z,71.59
2019-03-23T12:46:32.246Z,70.98
2019-03-23T12:47:32.295Z,70.34
2019-03-23T12:48:32.232Z,69.18
2019-03-23T12:49:32.199Z,69.38
2019-03-23T12:50:32.480Z,68.33
2019-03-23T12:51:32.196Z,69.24
2019-03-23T12:52:32.166Z,68.23